Time;durP1;ratioP1;P1;durP2;ratioP2;P2;SDS_P1;SDS_P2;PMS_P1;PMS_P2;Temp;Humidity;BMP_temperature;BMP_pressure;BME280_temperature;BME280_humidity;BME280_pressure;Samples;Min_cycle;Max_cycle;Signal;HPM_P1;HPM_P2
2023/04/10 00:00:47;;;;;;;30.58;17.38;;;;;;;;;;5054643;28;20280;-77
2023/04/10 00:03:12;;;;;;;27.70;17.33;;;;;;;;;;5054740;28;20369;-77
2023/04/10 00:05:37;;;;;;;29.35;17.35;;;;;;;;;;5054897;28;20047;-77
2023/04/10 00:08:02;;;;;;;29.27;17.30;;;;;;;;;;5054566;28;20032;-77
2023/04/10 00:10:30;;;;;;;29.45;17.77;;;;;;;;;;5054409;28;20262;-76
2023/04/10 00:12:56;;;;;;;29.13;16.50;;;;;;;;;;5054209;28;20024;-77
2023/04/10 00:15:21;;;;;;;34.00;17.67;;;;;;;;;;5053163;28;20112;-77
2023/04/10 00:17:46;;;;;;;27.00;15.33;;;;;;;;;;5053845;28;20029;-76
2023/04/10 00:20:11;;;;;;;26.83;16.02;;;;;;;;;;5054620;28;20307;-77
2023/04/10 00:22:37;;;;;;;26.10;15.68;;;;;;;;;;5052949;28;20083;-76
2023/04/10 00:25:02;;;;;;;27.15;15.40;;;;;;;;;;5052967;28;20020;-76
2023/04/10 00:27:28;;;;;;;25.65;15.95;;;;;;;;;;5054430;28;20484;-76
2023/04/10 00:29:54;;;;;;;26.45;15.15;;;;;;;;;;5054408;28;20025;-76
2023/04/10 00:32:19;;;;;;;25.73;15.27;;;;;;;;;;5052756;28;20488;-76
2023/04/10 00:34:44;;;;;;;27.23;15.90;;;;;;;;;;5053980;28;20021;-76
2023/04/10 00:37:10;;;;;;;27.27;15.37;;;;;;;;;;5053971;28;20036;-76
2023/04/10 00:39:35;;;;;;;26.38;15.27;;;;;;;;;;5054224;28;20258;-76
2023/04/10 00:42:01;;;;;;;23.95;14.65;;;;;;;;;;5052552;28;20477;-76
2023/04/10 00:44:26;;;;;;;25.10;14.93;;;;;;;;;;5053865;28;20458;-76
2023/04/10 00:46:51;;;;;;;25.10;15.68;;;;;;;;;;5054089;28;20029;-76
2023/04/10 00:49:17;;;;;;;26.15;15.35;;;;;;;;;;5054052;28;20029;-76
2023/04/10 00:51:43;;;;;;;27.40;15.77;;;;;;;;;;5053672;28;20044;-76
2023/04/10 00:54:10;;;;;;;26.88;16.10;;;;;;;;;;5053573;28;20029;-77
2023/04/10 00:56:36;;;;;;;26.15;15.07;;;;;;;;;;5053554;28;20017;-77
2023/04/10 00:59:01;;;;;;;28.48;15.73;;;;;;;;;;5052270;28;20021;-76
2023/04/10 01:01:27;;;;;;;25.17;15.73;;;;;;;;;;5053749;28;20032;-76
2023/04/10 01:03:52;;;;;;;26.73;15.55;;;;;;;;;;5052230;28;20102;-76
2023/04/10 01:06:34;;;;;;;27.83;14.77;;;;;;;;;;5053404;28;20021;-76
2023/04/10 01:09:16;;;;;;;26.55;15.77;;;;;;;;;;5053809;28;20370;-76
2023/04/10 01:11:54;;;;;;;25.90;14.93;;;;;;;;;;5051984;28;20052;-76
2023/04/10 01:14:44;;;;;;;25.67;15.52;;;;;;;;;;5053322;28;20021;-77
2023/04/10 01:17:20;;;;;;;29.70;16.80;;;;;;;;;;5053611;28;20043;-76
2023/04/10 01:20:01;;;;;;;27.83;15.32;;;;;;;;;;5053483;28;20391;-76
2023/04/10 01:22:47;;;;;;;23.13;14.77;;;;;;;;;;5051917;28;20028;-77
2023/04/10 01:25:55;;;;;;;23.48;14.60;;;;;;;;;;5053724;28;20369;-76
2023/04/10 01:28:29;;;;;;;27.58;15.75;;;;;;;;;;5052951;28;20028;-76
2023/04/10 01:30:58;;;;;;;24.92;14.82;;;;;;;;;;5052886;28;20043;-76
2023/04/10 01:33:27;;;;;;;25.58;15.00;;;;;;;;;;5053309;28;20025;-76
2023/04/10 01:35:55;;;;;;;24.17;14.90;;;;;;;;;;5052960;28;20029;-76
2023/04/10 01:38:25;;;;;;;25.40;14.63;;;;;;;;;;5053013;28;20052;-76
2023/04/10 01:40:53;;;;;;;24.50;15.00;;;;;;;;;;5052534;28;20091;-76
2023/04/10 01:43:20;;;;;;;24.40;14.60;;;;;;;;;;5052941;28;20029;-76
2023/04/10 01:45:48;;;;;;;25.60;15.65;;;;;;;;;;5051761;28;20028;-76
2023/04/10 01:48:15;;;;;;;23.80;14.90;;;;;;;;;;5052859;28;20546;-75
2023/04/10 01:50:40;;;;;;;24.38;14.73;;;;;;;;;;5053136;28;20029;-76
2023/04/10 01:53:06;;;;;;;26.70;15.35;;;;;;;;;;5052757;28;20078;-77
2023/04/10 01:55:32;;;;;;;25.35;15.05;;;;;;;;;;5052799;28;20032;-76
2023/04/10 01:57:59;;;;;;;26.33;15.07;;;;;;;;;;5052787;28;20033;-78
2023/04/10 02:00:24;;;;;;;25.40;14.23;;;;;;;;;;5053090;28;20472;-76
2023/04/10 02:02:50;;;;;;;25.95;14.63;;;;;;;;;;5052686;28;20044;-77
2023/04/10 02:05:15;;;;;;;28.30;14.75;;;;;;;;;;5051500;28;20013;-77
2023/04/10 02:07:59;;;;;;;25.95;14.88;;;;;;;;;;5052789;28;20033;-77
2023/04/10 02:10:50;;;;;;;29.25;15.55;;;;;;;;;;5053301;28;20017;-77
2023/04/10 02:13:20;;;;;;;25.38;14.15;;;;;;;;;;5052654;28;20399;-77
2023/04/10 02:15:46;;;;;;;25.00;14.38;;;;;;;;;;5053094;28;20403;-77
2023/04/10 02:18:15;;;;;;;25.33;15.63;;;;;;;;;;5052615;28;20033;-77
2023/04/10 02:20:41;;;;;;;23.75;15.10;;;;;;;;;;5052590;28;20057;-77
2023/04/10 02:23:06;;;;;;;25.27;14.57;;;;;;;;;;5052799;28;20065;-77
2023/04/10 02:25:32;;;;;;;26.40;15.35;;;;;;;;;;5051349;28;20017;-77
2023/04/10 02:27:57;;;;;;;27.95;15.77;;;;;;;;;;5052581;28;20044;-76
2023/04/10 02:30:23;;;;;;;27.27;15.30;;;;;;;;;;5053028;28;20037;-77
2023/04/10 02:32:49;;;;;;;27.10;15.73;;;;;;;;;;5051130;28;20051;-77
2023/04/10 02:35:14;;;;;;;24.48;15.07;;;;;;;;;;5052408;28;20025;-77
2023/04/10 02:37:41;;;;;;;27.17;15.05;;;;;;;;;;5052455;28;20506;-76
2023/04/10 02:40:07;;;;;;;25.35;14.90;;;;;;;;;;5052875;28;20060;-76
2023/04/10 02:42:32;;;;;;;29.13;16.83;;;;;;;;;;5056087;28;20056;-77
2023/04/10 02:44:57;;;;;;;26.50;15.52;;;;;;;;;;5056299;28;20472;-76
2023/04/10 02:47:23;;;;;;;26.27;15.43;;;;;;;;;;5054832;28;20029;-75
2023/04/10 02:49:48;;;;;;;24.58;14.68;;;;;;;;;;5056074;28;20029;-76
2023/04/10 02:52:13;;;;;;;26.92;16.25;;;;;;;;;;5054688;28;20036;-75
2023/04/10 02:54:39;;;;;;;27.15;15.07;;;;;;;;;;5056216;28;20104;-77
2023/04/10 02:57:04;;;;;;;26.85;14.50;;;;;;;;;;5054711;28;20029;-76
2023/04/10 02:59:29;;;;;;;24.57;14.50;;;;;;;;;;5054555;28;20404;-76
2023/04/10 03:01:55;;;;;;;24.25;14.18;;;;;;;;;;5054495;28;20633;-76
2023/04/10 03:04:20;;;;;;;25.85;15.40;;;;;;;;;;5054520;28;20053;-76
2023/04/10 03:06:45;;;;;;;23.58;14.80;;;;;;;;;;5055936;28;20021;-76
2023/04/10 03:09:10;;;;;;;24.97;14.63;;;;;;;;;;5056206;28;20036;-76
2023/04/10 03:11:36;;;;;;;25.23;14.82;;;;;;;;;;5054033;28;20266;-76
2023/04/10 03:14:01;;;;;;;23.73;14.40;;;;;;;;;;5055609;28;20095;-77
2023/04/10 03:16:26;;;;;;;23.27;14.93;;;;;;;;;;5055690;28;20494;-76
2023/04/10 03:18:52;;;;;;;25.98;15.93;;;;;;;;;;5054160;28;20442;-76
2023/04/10 03:21:17;;;;;;;24.63;14.60;;;;;;;;;;5055286;28;20097;-77
2023/04/10 03:23:42;;;;;;;26.05;14.68;;;;;;;;;;5055355;28;20033;-76
2023/04/10 03:26:08;;;;;;;25.85;15.05;;;;;;;;;;5054082;28;20551;-76
2023/04/10 03:28:35;;;;;;;25.20;15.15;;;;;;;;;;5055351;28;20032;-76
2023/04/10 03:31:01;;;;;;;24.23;14.32;;;;;;;;;;5055201;28;20511;-76
2023/04/10 03:33:26;;;;;;;25.25;14.43;;;;;;;;;;5055264;28;20025;-76
2023/04/10 03:35:52;;;;;;;23.90;13.83;;;;;;;;;;5055137;28;20036;-76
2023/04/10 03:38:17;;;;;;;24.38;13.77;;;;;;;;;;5055660;28;20258;-76
2023/04/10 03:40:42;;;;;;;26.10;14.38;;;;;;;;;;5055135;28;20028;-77
2023/04/10 03:43:08;;;;;;;24.17;14.77;;;;;;;;;;5055017;28;20033;-76
2023/04/10 03:45:33;;;;;;;21.87;13.30;;;;;;;;;;5055220;28;20254;-77
2023/04/10 03:47:59;;;;;;;22.17;12.65;;;;;;;;;;5055429;28;20257;-76
2023/04/10 03:50:24;;;;;;;22.67;13.32;;;;;;;;;;5053907;28;20075;-76
2023/04/10 03:52:50;;;;;;;24.95;13.40;;;;;;;;;;5053958;28;20096;-76
2023/04/10 03:55:17;;;;;;;26.92;13.60;;;;;;;;;;5054792;28;20064;-77
2023/04/10 03:57:46;;;;;;;25.95;14.70;;;;;;;;;;5055067;28;20028;-76
2023/04/10 04:00:12;;;;;;;21.42;12.77;;;;;;;;;;5054956;28;20025;-76
2023/04/10 04:02:37;;;;;;;23.92;13.80;;;;;;;;;;5054560;28;20111;-77
2023/04/10 04:05:03;;;;;;;24.02;13.43;;;;;;;;;;5053394;28;20052;-76
2023/04/10 04:07:28;;;;;;;22.23;13.52;;;;;;;;;;5053375;28;20024;-76
2023/04/10 04:09:54;;;;;;;23.57;13.43;;;;;;;;;;5054716;28;20039;-76
2023/04/10 04:12:19;;;;;;;21.73;13.95;;;;;;;;;;5054534;28;20262;-76
2023/04/10 04:14:44;;;;;;;22.23;13.38;;;;;;;;;;5054384;28;20025;-76
2023/04/10 04:17:10;;;;;;;21.90;13.18;;;;;;;;;;5054411;28;20492;-76
2023/04/10 04:19:35;;;;;;;21.92;13.18;;;;;;;;;;5054327;28;20025;-76
2023/04/10 04:22:00;;;;;;;21.53;13.33;;;;;;;;;;5054185;28;20031;-77
2023/04/10 04:24:26;;;;;;;24.27;14.32;;;;;;;;;;5055083;28;20290;-77
2023/04/10 04:26:51;;;;;;;20.48;13.10;;;;;;;;;;5054490;28;20032;-77
2023/04/10 04:29:16;;;;;;;23.90;13.45;;;;;;;;;;5054199;28;20366;-77
2023/04/10 04:31:41;;;;;;;21.47;13.43;;;;;;;;;;5054099;28;20111;-77
2023/04/10 04:34:06;;;;;;;22.27;12.73;;;;;;;;;;5054175;28;20309;-77
2023/04/10 04:36:32;;;;;;;22.33;12.43;;;;;;;;;;5053060;28;20024;-77
2023/04/10 04:38:57;;;;;;;19.33;12.23;;;;;;;;;;5054127;28;20272;-77
2023/04/10 04:41:22;;;;;;;21.03;12.40;;;;;;;;;;5054272;28;20262;-77
2023/04/10 04:43:48;;;;;;;18.70;11.63;;;;;;;;;;5053908;28;20254;-77
2023/04/10 04:46:13;;;;;;;22.00;12.65;;;;;;;;;;5052537;28;20274;-77
2023/04/10 04:48:38;;;;;;;20.58;12.68;;;;;;;;;;5053928;28;20404;-77
2023/04/10 04:51:07;;;;;;;21.48;12.98;;;;;;;;;;5053611;28;20040;-77
2023/04/10 04:53:32;;;;;;;21.95;12.30;;;;;;;;;;5053966;28;20062;-77
2023/04/10 04:55:57;;;;;;;19.65;12.27;;;;;;;;;;5052334;28;20021;-77
2023/04/10 04:58:23;;;;;;;23.20;13.27;;;;;;;;;;5052351;28;20025;-77
2023/04/10 05:00:50;;;;;;;22.77;12.02;;;;;;;;;;5053490;28;20029;-77
2023/04/10 05:03:15;;;;;;;24.60;12.88;;;;;;;;;;5053402;28;20037;-77
2023/04/10 05:05:40;;;;;;;21.37;12.63;;;;;;;;;;5053652;28;20031;-77
2023/04/10 05:08:06;;;;;;;23.93;12.57;;;;;;;;;;5053761;28;20258;-77
2023/04/10 05:10:31;;;;;;;21.43;12.73;;;;;;;;;;5053407;28;20257;-77
2023/04/10 05:12:56;;;;;;;21.43;12.63;;;;;;;;;;5053184;28;20269;-77
2023/04/10 05:15:21;;;;;;;19.77;12.43;;;;;;;;;;5053256;28;20369;-77
2023/04/10 05:17:49;;;;;;;20.02;12.23;;;;;;;;;;5053534;28;20293;-77
2023/04/10 05:20:15;;;;;;;20.60;11.77;;;;;;;;;;5052097;28;20074;-77
2023/04/10 05:22:40;;;;;;;19.25;12.20;;;;;;;;;;5053597;28;20451;-77
2023/04/10 05:25:06;;;;;;;20.73;11.97;;;;;;;;;;5053759;28;20017;-77
2023/04/10 05:27:31;;;;;;;19.38;12.68;;;;;;;;;;5053243;28;20246;-77
2023/04/10 05:29:56;;;;;;;21.63;13.00;;;;;;;;;;5051890;28;20021;-77
2023/04/10 05:32:22;;;;;;;24.20;13.03;;;;;;;;;;5053131;28;20261;-77
2023/04/10 05:34:47;;;;;;;21.35;12.63;;;;;;;;;;5052594;28;20368;-77
2023/04/10 05:37:12;;;;;;;20.00;12.37;;;;;;;;;;5053620;28;20033;-76
2023/04/10 05:39:37;;;;;;;23.27;12.93;;;;;;;;;;5051773;28;20253;-77
2023/04/10 05:42:02;;;;;;;23.27;12.45;;;;;;;;;;5052907;28;20079;-77
2023/04/10 05:44:29;;;;;;;20.33;12.13;;;;;;;;;;5053516;28;20139;-77
2023/04/10 05:46:55;;;;;;;19.70;12.13;;;;;;;;;;5053195;28;20107;-77
2023/04/10 05:49:20;;;;;;;20.02;12.18;;;;;;;;;;5052825;28;20053;-77
2023/04/10 05:51:49;;;;;;;19.48;12.00;;;;;;;;;;5053004;28;20036;-77
2023/04/10 05:54:14;;;;;;;20.08;13.25;;;;;;;;;;5053395;28;20099;-77
2023/04/10 05:56:40;;;;;;;21.45;12.13;;;;;;;;;;5052792;28;20120;-77
2023/04/10 05:59:05;;;;;;;18.43;11.50;;;;;;;;;;5053924;28;20047;-78
2023/04/10 06:01:30;;;;;;;24.50;11.45;;;;;;;;;;5051703;28;20352;-77
2023/04/10 06:03:56;;;;;;;20.95;12.00;;;;;;;;;;5052750;28;20077;-77
2023/04/10 06:06:23;;;;;;;19.40;11.70;;;;;;;;;;5053128;28;20021;-77
2023/04/10 06:08:48;;;;;;;17.77;11.13;;;;;;;;;;5051508;28;20111;-77
2023/04/10 06:11:14;;;;;;;18.67;11.48;;;;;;;;;;5051248;28;20188;-77
2023/04/10 06:13:39;;;;;;;17.42;10.90;;;;;;;;;;5051550;28;20041;-77
2023/04/10 06:16:05;;;;;;;22.85;11.55;;;;;;;;;;5054792;28;20037;-77
2023/04/10 06:18:30;;;;;;;18.95;10.93;;;;;;;;;;5055434;28;20025;-77
2023/04/10 06:20:56;;;;;;;17.98;11.10;;;;;;;;;;5056608;28;20023;-77
2023/04/10 06:23:22;;;;;;;19.02;11.77;;;;;;;;;;5055288;28;20020;-77
2023/04/10 06:25:47;;;;;;;18.30;11.52;;;;;;;;;;5056593;28;20025;-77
2023/04/10 06:28:13;;;;;;;18.73;11.30;;;;;;;;;;5056547;28;20032;-77
2023/04/10 06:30:38;;;;;;;17.08;11.23;;;;;;;;;;5056427;28;20253;-77
2023/04/10 06:33:03;;;;;;;21.27;12.00;;;;;;;;;;5056379;28;20025;-77
2023/04/10 06:35:28;;;;;;;23.50;11.75;;;;;;;;;;5056309;28;20358;-77
2023/04/10 06:37:53;;;;;;;23.77;12.05;;;;;;;;;;5056383;28;20032;-77
2023/04/10 06:40:19;;;;;;;19.50;11.50;;;;;;;;;;5056323;28;20025;-76
2023/04/10 06:42:44;;;;;;;18.13;11.57;;;;;;;;;;5056166;28;20025;-77
2023/04/10 06:45:09;;;;;;;18.67;11.85;;;;;;;;;;5056369;28;20486;-77
2023/04/10 06:47:35;;;;;;;18.92;11.30;;;;;;;;;;5056336;28;20028;-77
2023/04/10 06:50:00;;;;;;;21.83;12.02;;;;;;;;;;5056241;28;20021;-77
2023/04/10 06:52:25;;;;;;;23.93;12.17;;;;;;;;;;5054785;28;20503;-77
2023/04/10 06:54:51;;;;;;;18.52;11.75;;;;;;;;;;5054707;28;20777;-77
2023/04/10 06:57:17;;;;;;;18.17;11.93;;;;;;;;;;5056127;28;20025;-77
2023/04/10 06:59:43;;;;;;;19.27;11.18;;;;;;;;;;5054735;28;20029;-77
2023/04/10 07:02:08;;;;;;;20.00;12.07;;;;;;;;;;5054583;28;20109;-77
2023/04/10 07:04:34;;;;;;;21.60;10.88;;;;;;;;;;5055912;28;20037;-77
2023/04/10 07:06:59;;;;;;;18.15;11.32;;;;;;;;;;5055790;28;20021;-77
2023/04/10 07:09:27;;;;;;;19.67;11.38;;;;;;;;;;5055874;28;20021;-77
2023/04/10 07:11:52;;;;;;;19.60;11.25;;;;;;;;;;5055446;28;20047;-77
2023/04/10 07:14:18;;;;;;;18.03;10.87;;;;;;;;;;5055657;28;20095;-77
2023/04/10 07:16:43;;;;;;;17.23;11.23;;;;;;;;;;5055486;28;20361;-77
2023/04/10 07:19:08;;;;;;;15.43;10.55;;;;;;;;;;5055557;28;20036;-77
2023/04/10 07:21:34;;;;;;;16.33;10.45;;;;;;;;;;5056050;28;20028;-77
2023/04/10 07:23:59;;;;;;;16.95;10.40;;;;;;;;;;5055353;28;20025;-77
2023/04/10 07:26:24;;;;;;;18.05;11.23;;;;;;;;;;5054901;28;20025;-77
2023/04/10 07:28:50;;;;;;;15.65;10.25;;;;;;;;;;5053484;28;20440;-77
2023/04/10 07:31:16;;;;;;;19.00;10.95;;;;;;;;;;5055112;28;20031;-76
2023/04/10 07:33:42;;;;;;;19.63;12.07;;;;;;;;;;5055163;28;20415;-75
2023/04/10 07:36:07;;;;;;;18.88;11.15;;;;;;;;;;5055311;28;20028;-76
2023/04/10 07:38:32;;;;;;;23.42;10.75;;;;;;;;;;5055609;28;20093;-76
2023/04/10 07:40:58;;;;;;;17.95;11.02;;;;;;;;;;5053611;28;20033;-76
2023/04/10 07:43:24;;;;;;;15.93;10.03;;;;;;;;;;5055069;28;20029;-76
2023/04/10 07:45:50;;;;;;;18.08;10.27;;;;;;;;;;5055625;28;20285;-76
2023/04/10 07:48:15;;;;;;;19.10;11.00;;;;;;;;;;5054959;28;20032;-76
2023/04/10 07:50:40;;;;;;;18.23;10.55;;;;;;;;;;5054877;28;20491;-76
2023/04/10 07:53:08;;;;;;;19.20;11.63;;;;;;;;;;5054732;28;20075;-76
2023/04/10 07:55:38;;;;;;;18.17;11.18;;;;;;;;;;5055303;28;20104;-76
2023/04/10 07:58:03;;;;;;;19.25;11.38;;;;;;;;;;5054802;28;20025;-76
2023/04/10 08:00:28;;;;;;;18.40;11.02;;;;;;;;;;5053497;28;20070;-76
2023/04/10 08:02:53;;;;;;;22.95;11.75;;;;;;;;;;5054645;28;20029;-76
2023/04/10 08:05:19;;;;;;;18.90;11.67;;;;;;;;;;5054615;28;20079;-76
2023/04/10 08:07:44;;;;;;;17.60;10.95;;;;;;;;;;5054531;28;20270;-77
2023/04/10 08:10:09;;;;;;;18.50;11.43;;;;;;;;;;5055170;28;20027;-77
2023/04/10 08:12:35;;;;;;;18.45;11.30;;;;;;;;;;5054566;28;20029;-77
2023/04/10 08:15:00;;;;;;;16.67;10.60;;;;;;;;;;5054675;28;20021;-77
2023/04/10 08:17:25;;;;;;;16.98;11.23;;;;;;;;;;5054364;28;20476;-76
2023/04/10 08:19:51;;;;;;;18.17;11.20;;;;;;;;;;5054662;28;20017;-77
2023/04/10 08:22:16;;;;;;;17.83;10.50;;;;;;;;;;5054328;28;20021;-77
2023/04/10 08:24:41;;;;;;;17.27;11.40;;;;;;;;;;5054288;28;20272;-77
2023/04/10 08:27:06;;;;;;;17.73;10.90;;;;;;;;;;5054371;28;20345;-77
2023/04/10 08:29:31;;;;;;;19.77;11.10;;;;;;;;;;5054454;28;20297;-77
2023/04/10 08:31:59;;;;;;;18.80;11.17;;;;;;;;;;5052800;28;20270;-77
2023/04/10 08:34:25;;;;;;;20.27;11.32;;;;;;;;;;5054430;28;20289;-77
2023/04/10 08:36:50;;;;;;;18.98;11.52;;;;;;;;;;5054041;28;20396;-77
2023/04/10 08:39:15;;;;;;;21.53;11.43;;;;;;;;;;5054005;28;20033;-78
2023/04/10 08:41:40;;;;;;;20.08;11.82;;;;;;;;;;5054998;28;20272;-77
2023/04/10 08:44:06;;;;;;;20.08;11.07;;;;;;;;;;5054102;28;20498;-76
2023/04/10 08:46:35;;;;;;;22.42;11.45;;;;;;;;;;5052799;28;20032;-77
2023/04/10 08:49:02;;;;;;;20.25;10.77;;;;;;;;;;5052696;28;20021;-77
2023/04/10 08:51:36;;;;;;;20.40;11.60;;;;;;;;;;5054186;28;20115;-76
2023/04/10 08:54:10;;;;;;;;;;;;;;;;;;5054102;28;20442;-77
2023/04/10 08:56:36;;;;;;;;;;;;;;;;;;5052839;28;19912;-77
2023/04/10 08:59:02;;;;;;;18.48;10.60;;;;;;;;;;5052803;28;20287;-77
2023/04/10 09:01:27;;;;;;;20.65;10.35;;;;;;;;;;5053757;28;20029;-77
2023/04/10 09:03:53;;;;;;;19.33;10.23;;;;;;;;;;5054543;28;20032;-77
2023/04/10 09:06:18;;;;;;;17.10;10.68;;;;;;;;;;5052630;28;20032;-77
2023/04/10 09:08:44;;;;;;;16.67;9.43;;;;;;;;;;5053588;28;20116;-77
2023/04/10 09:11:09;;;;;;;17.20;9.52;;;;;;;;;;5053121;28;20323;-77
2023/04/10 09:13:40;;;;;;;13.48;8.23;;;;;;;;;;5053911;28;20117;-77
2023/04/10 09:16:06;;;;;;;15.45;8.23;;;;;;;;;;5055461;28;20029;-77
2023/04/10 09:18:50;;;;;;;13.57;7.38;;;;;;;;;;5054781;28;20056;-77
2023/04/10 09:21:20;;;;;;;16.03;8.70;;;;;;;;;;5054750;28;20104;-77
2023/04/10 09:23:46;;;;;;;15.30;8.63;;;;;;;;;;5055693;28;20044;-76
2023/04/10 09:26:29;;;;;;;11.50;7.22;;;;;;;;;;5054341;28;20029;-77
2023/04/10 09:28:56;;;;;;;15.18;8.15;;;;;;;;;;5054200;28;20532;-76
2023/04/10 09:31:38;;;;;;;13.63;8.70;;;;;;;;;;5053868;28;20029;-77
2023/04/10 09:34:08;;;;;;;14.07;8.35;;;;;;;;;;5054448;28;20494;-77
2023/04/10 09:36:34;;;;;;;12.13;7.25;;;;;;;;;;5051920;28;20485;-77
2023/04/10 09:38:59;;;;;;;14.15;8.48;;;;;;;;;;5051948;28;20025;-77
2023/04/10 09:41:24;;;;;;;16.13;8.77;;;;;;;;;;5053411;28;20070;-78
2023/04/10 09:44:08;;;;;;;16.25;8.32;;;;;;;;;;5053548;28;20254;-77
2023/04/10 09:46:33;;;;;;;15.27;8.00;;;;;;;;;;5053324;28;20421;-77
2023/04/10 09:49:06;;;;;;;13.15;8.23;;;;;;;;;;5053104;28;20031;-77
2023/04/10 09:51:34;;;;;;;13.13;8.55;;;;;;;;;;5052950;28;20032;-77
2023/04/10 09:54:00;;;;;;;13.32;8.13;;;;;;;;;;5053309;28;20048;-78
2023/04/10 09:56:26;;;;;;;11.02;7.30;;;;;;;;;;5051620;28;20104;-78
2023/04/10 09:58:57;;;;;;;10.07;6.70;;;;;;;;;;5053166;28;20025;-77
2023/04/10 10:01:24;;;;;;;12.48;6.85;;;;;;;;;;5053029;28;20025;-77
2023/04/10 10:03:50;;;;;;;11.95;6.63;;;;;;;;;;5052445;28;20021;-77
2023/04/10 10:06:16;;;;;;;10.10;5.68;;;;;;;;;;5053196;28;20103;-79
2023/04/10 10:08:42;;;;;;;12.40;7.05;;;;;;;;;;5053394;28;20052;-77
2023/04/10 10:11:10;;;;;;;11.43;7.28;;;;;;;;;;5052942;28;20037;-78
2023/04/10 10:13:52;;;;;;;11.23;7.28;;;;;;;;;;5053433;28;20099;-78
2023/04/10 10:16:24;;;;;;;12.23;7.45;;;;;;;;;;5051690;28;20028;-77
2023/04/10 10:19:11;;;;;;;11.27;7.03;;;;;;;;;;5053443;28;20521;-77
2023/04/10 10:21:37;;;;;;;10.80;7.20;;;;;;;;;;5053045;28;20377;-77
2023/04/10 10:24:07;;;;;;;11.60;6.80;;;;;;;;;;5052680;28;20029;-77
2023/04/10 10:26:34;;;;;;;12.07;7.15;;;;;;;;;;5051635;28;20473;-77
2023/04/10 10:29:05;;;;;;;12.27;6.97;;;;;;;;;;5053517;28;20134;-78
2023/04/10 10:31:32;;;;;;;13.88;7.15;;;;;;;;;;5053020;28;20025;-77
2023/04/10 10:34:03;;;;;;;10.68;6.47;;;;;;;;;;5051376;28;20158;-77
2023/04/10 10:36:30;;;;;;;10.25;6.95;;;;;;;;;;5051751;28;20107;-77
2023/04/10 10:39:33;;;;;;;9.65;6.20;;;;;;;;;;5051681;28;20033;-78
2023/04/10 10:42:13;;;;;;;8.85;5.82;;;;;;;;;;5052966;28;20028;-78
2023/04/10 10:44:44;;;;;;;9.32;5.63;;;;;;;;;;5053028;28;20056;-77
2023/04/10 10:47:16;;;;;;;9.38;5.90;;;;;;;;;;5053001;28;20025;-78
2023/04/10 10:49:55;;;;;;;8.63;5.95;;;;;;;;;;5053189;28;20476;-77
2023/04/10 10:52:43;;;;;;;9.90;5.75;;;;;;;;;;5053044;28;20036;-77
2023/04/10 10:55:20;;;;;;;12.05;6.10;;;;;;;;;;5052701;28;20395;-78
2023/04/10 10:57:53;;;;;;;9.35;6.20;;;;;;;;;;5052792;28;20067;-79
2023/04/10 11:00:26;;;;;;;10.00;5.97;;;;;;;;;;5053096;28;20051;-77
2023/04/10 11:03:06;;;;;;;8.40;6.10;;;;;;;;;;5055685;28;20049;-78
2023/04/10 11:05:49;;;;;;;9.80;6.45;;;;;;;;;;5056137;28;20076;-78
2023/04/10 11:08:15;;;;;;;11.80;5.95;;;;;;;;;;5056260;28;20078;-78
2023/04/10 11:11:05;;;;;;;9.07;6.10;;;;;;;;;;5056208;28;20028;-77
2023/04/10 11:13:34;;;;;;;8.73;5.70;;;;;;;;;;5054543;28;20056;-77
2023/04/10 11:16:02;;;;;;;9.18;5.88;;;;;;;;;;5054763;28;20059;-78
2023/04/10 11:18:45;;;;;;;9.98;5.68;;;;;;;;;;5054392;28;20433;-76
2023/04/10 11:21:15;;;;;;;10.07;5.40;;;;;;;;;;5055636;28;20021;-79
2023/04/10 11:24:02;;;;;;;10.45;6.82;;;;;;;;;;5054891;28;20033;-77
2023/04/10 11:26:40;;;;;;;10.73;6.90;;;;;;;;;;5056501;28;20025;-76
2023/04/10 11:29:25;;;;;;;12.57;6.90;;;;;;;;;;5056620;28;20028;-76
2023/04/10 11:32:02;;;;;;;9.45;6.28;;;;;;;;;;5055386;28;20025;-77
2023/04/10 11:34:29;;;;;;;9.73;6.57;;;;;;;;;;5055569;28;20487;-77
2023/04/10 11:36:55;;;;;;;13.80;7.38;;;;;;;;;;5055658;28;20117;-77
2023/04/10 11:39:20;;;;;;;11.45;7.47;;;;;;;;;;5056162;28;20060;-77
2023/04/10 11:41:47;;;;;;;12.30;7.63;;;;;;;;;;5056015;28;20032;-78
2023/04/10 11:44:30;;;;;;;11.75;7.07;;;;;;;;;;5054743;28;20103;-78
2023/04/10 11:46:56;;;;;;;14.98;6.68;;;;;;;;;;5054523;28;20044;-77
2023/04/10 11:49:29;;;;;;;11.48;6.65;;;;;;;;;;5055460;28;20481;-77
2023/04/10 11:51:54;;;;;;;11.45;6.68;;;;;;;;;;5055533;28;20120;-77
2023/04/10 11:54:24;;;;;;;10.27;6.27;;;;;;;;;;5055369;28;20067;-77
2023/04/10 11:57:03;;;;;;;10.68;6.88;;;;;;;;;;5055533;28;20274;-77
2023/04/10 11:59:30;;;;;;;10.27;5.97;;;;;;;;;;5055909;28;20032;-77
2023/04/10 12:02:10;;;;;;;10.27;5.45;;;;;;;;;;5055576;28;20078;-77
2023/04/10 12:04:38;;;;;;;9.60;5.72;;;;;;;;;;5055339;28;20553;-77
2023/04/10 12:07:04;;;;;;;12.00;6.18;;;;;;;;;;5053835;28;20074;-77
2023/04/10 12:09:29;;;;;;;10.23;6.68;;;;;;;;;;5055284;28;20430;-77
2023/04/10 12:11:59;;;;;;;11.77;6.60;;;;;;;;;;5054736;28;20037;-77
2023/04/10 12:14:32;;;;;;;11.40;6.20;;;;;;;;;;5053290;28;20028;-78
2023/04/10 12:16:58;;;;;;;10.47;6.50;;;;;;;;;;5054705;28;20029;-77
2023/04/10 12:19:25;;;;;;;10.73;6.57;;;;;;;;;;5054507;28;20036;-77
2023/04/10 12:21:50;;;;;;;11.45;6.40;;;;;;;;;;5053309;28;20025;-77
2023/04/10 12:24:45;;;;;;;13.13;6.57;;;;;;;;;;5054953;28;20491;-77
2023/04/10 12:27:20;;;;;;;10.07;6.15;;;;;;;;;;5053909;28;20028;-77
2023/04/10 12:29:46;;;;;;;10.38;6.30;;;;;;;;;;5054188;28;20029;-77
2023/04/10 12:32:12;;;;;;;15.93;6.18;;;;;;;;;;5054306;28;20033;-78
2023/04/10 12:34:38;;;;;;;8.80;5.13;;;;;;;;;;5054218;28;20499;-78
2023/04/10 12:37:03;;;;;;;10.63;6.22;;;;;;;;;;5054184;28;20025;-77
2023/04/10 12:39:29;;;;;;;9.27;5.50;;;;;;;;;;5054818;28;20024;-76
2023/04/10 12:42:12;;;;;;;8.15;5.50;;;;;;;;;;5054136;28;20467;-76
2023/04/10 12:44:55;;;;;;;8.60;5.15;;;;;;;;;;5054121;28;20064;-77
2023/04/10 12:47:20;;;;;;;9.70;6.32;;;;;;;;;;5053926;28;20025;-76
2023/04/10 12:50:09;;;;;;;8.95;6.10;;;;;;;;;;5053832;28;20027;-76
2023/04/10 12:52:35;;;;;;;10.05;5.05;;;;;;;;;;5054502;28;20399;-76
2023/04/10 12:55:13;;;;;;;9.13;4.78;;;;;;;;;;5053556;28;20062;-77
2023/04/10 12:57:40;;;;;;;10.95;5.30;;;;;;;;;;5052396;28;20025;-77
2023/04/10 13:00:08;;;;;;;8.00;5.05;;;;;;;;;;5052387;28;20500;-77
2023/04/10 13:02:33;;;;;;;9.40;5.90;;;;;;;;;;5053531;28;20024;-77
2023/04/10 13:04:59;;;;;;;8.50;5.50;;;;;;;;;;5053515;28;20499;-76
2023/04/10 13:07:24;;;;;;;6.97;4.90;;;;;;;;;;5053467;28;20029;-77
2023/04/10 13:09:49;;;;;;;9.23;5.60;;;;;;;;;;5053748;28;20071;-77
2023/04/10 13:12:15;;;;;;;8.03;5.70;;;;;;;;;;5053359;28;20028;-77
2023/04/10 13:14:40;;;;;;;9.00;5.28;;;;;;;;;;5053468;28;20316;-77
2023/04/10 13:17:05;;;;;;;8.55;5.55;;;;;;;;;;5052176;28;20075;-77
2023/04/10 13:19:31;;;;;;;10.43;5.70;;;;;;;;;;5053418;28;20120;-77
2023/04/10 13:21:56;;;;;;;7.78;5.13;;;;;;;;;;5053815;28;20330;-77
2023/04/10 13:24:21;;;;;;;6.53;5.10;;;;;;;;;;5053010;28;20407;-77
2023/04/10 13:26:46;;;;;;;7.32;4.65;;;;;;;;;;5052416;28;20664;-77
2023/04/10 13:29:12;;;;;;;7.30;5.13;;;;;;;;;;5053818;28;20107;-78
2023/04/10 13:31:37;;;;;;;6.80;4.85;;;;;;;;;;5053156;28;20289;-78
2023/04/10 13:34:02;;;;;;;5.50;4.17;;;;;;;;;;5053418;28;20598;-77
2023/04/10 13:36:27;;;;;;;6.65;4.88;;;;;;;;;;5052892;28;20818;-77
2023/04/10 13:38:52;;;;;;;8.57;4.70;;;;;;;;;;5053568;28;20032;-78
2023/04/10 13:41:19;;;;;;;6.68;4.68;;;;;;;;;;5051833;28;20391;-76
2023/04/10 13:43:44;;;;;;;6.03;4.43;;;;;;;;;;5053039;28;20033;-77
2023/04/10 13:46:09;;;;;;;5.50;4.37;;;;;;;;;;5051868;28;20530;-77
2023/04/10 13:48:39;;;;;;;5.83;4.00;;;;;;;;;;5053370;28;20721;-78
2023/04/10 13:51:05;;;;;;;5.25;3.88;;;;;;;;;;5052834;28;20757;-77
2023/04/10 13:53:30;;;;;;;6.00;4.10;;;;;;;;;;5053638;28;20029;-77
2023/04/10 13:55:56;;;;;;;6.97;3.67;;;;;;;;;;5053753;28;20082;-79
2023/04/10 13:58:21;;;;;;;5.82;3.67;;;;;;;;;;5053735;28;20254;-77
2023/04/10 14:00:46;;;;;;;5.28;3.70;;;;;;;;;;5053163;28;20025;-77
2023/04/10 14:03:12;;;;;;;5.47;3.20;;;;;;;;;;5053731;28;20431;-78
2023/04/10 14:05:38;;;;;;;6.20;3.70;;;;;;;;;;5053403;28;20571;-78
2023/04/10 14:08:04;;;;;;;4.30;2.80;;;;;;;;;;5052993;28;20676;-77
2023/04/10 14:10:29;;;;;;;5.57;3.70;;;;;;;;;;5052755;28;20029;-78
2023/04/10 14:12:55;;;;;;;8.10;3.30;;;;;;;;;;5054046;28;20433;-77
2023/04/10 14:15:21;;;;;;;4.13;3.25;;;;;;;;;;5053310;28;20036;-76
2023/04/10 14:17:46;;;;;;;4.38;3.03;;;;;;;;;;5052646;28;20032;-77
2023/04/10 14:20:12;;;;;;;6.63;3.10;;;;;;;;;;5051334;28;20029;-76
2023/04/10 14:22:37;;;;;;;4.82;3.40;;;;;;;;;;5052204;28;20553;-76
2023/04/10 14:25:03;;;;;;;6.13;3.38;;;;;;;;;;5052546;28;20074;-77
2023/04/10 14:27:30;;;;;;;4.07;3.20;;;;;;;;;;5052541;28;20539;-77